createdAt,value
2019-06-08T00:01:43.212Z,15.10
2019-06-08T00:04:12.953Z,15.29
2019-06-08T00:06:42.269Z,15.04
2019-06-08T00:11:51.427Z,14.94
2019-06-08T00:17:00.628Z,15.03
2019-06-08T00:19:29.226Z,14.97
2019-06-08T00:21:57.800Z,14.95
2019-06-08T00:24:26.873Z,14.77
2019-06-08T00:26:57.089Z,14.82
2019-06-08T00:29:26.096Z,14.69
2019-06-08T00:34:33.027Z,14.93
2019-06-08T00:37:05.108Z,14.96
2019-06-08T00:39:34.081Z,14.90
2019-06-08T00:44:40.638Z,14.97
2019-06-08T00:47:09.674Z,14.80
2019-06-08T00:49:38.940Z,14.84
2019-06-08T00:52:10.749Z,14.72
2019-06-08T00:54:39.340Z,14.70
2019-06-08T00:57:08.477Z,14.68
2019-06-08T00:59:37.732Z,14.88
2019-06-08T01:02:09.623Z,14.79
2019-06-08T01:04:38.631Z,14.88
2019-06-08T01:07:08.030Z,14.74
2019-06-08T01:09:37.021Z,14.57
2019-06-08T01:12:05.624Z,14.65
2019-06-08T01:14:34.250Z,14.60
2019-06-08T01:17:02.871Z,14.56
2019-06-08T01:22:11.716Z,14.59
2019-06-08T01:24:40.607Z,14.53
2019-06-08T01:27:09.573Z,14.50
2019-06-08T01:29:38.631Z,14.43
2019-06-08T01:32:07.998Z,14.30
2019-06-08T01:34:36.961Z,14.39
2019-06-08T01:37:06.692Z,14.46
2019-06-08T01:39:35.314Z,14.32
2019-06-08T01:44:43.485Z,14.33
2019-06-08T01:49:57.764Z,14.30
2019-06-08T01:52:27.026Z,14.21
2019-06-08T01:54:55.995Z,14.13
2019-06-08T01:57:25.235Z,14.16
2019-06-08T01:59:54.943Z,14.15
2019-06-08T02:02:23.828Z,14.16
2019-06-08T02:07:30.414Z,14.12
2019-06-08T02:09:59.250Z,14.10
2019-06-08T02:12:28.850Z,14.15
2019-06-08T02:14:57.667Z,14.15
2019-06-08T02:17:27.316Z,14.08
2019-06-08T02:22:35.122Z,14.12
2019-06-08T02:25:04.543Z,14.02
2019-06-08T02:27:33.718Z,14.00
2019-06-08T02:30:02.626Z,14.04
2019-06-08T02:32:33.046Z,14.00
2019-06-08T02:35:02.481Z,13.99
2019-06-08T02:37:33.115Z,13.93
2019-06-08T02:42:46.728Z,14.00
2019-06-08T02:45:15.827Z,13.92
2019-06-08T02:50:57.954Z,13.93
2019-06-08T02:53:29.185Z,13.83
2019-06-08T02:58:38.079Z,13.88
2019-06-08T03:03:50.464Z,13.79
2019-06-08T03:06:20.302Z,13.81
2019-06-08T03:08:50.668Z,13.77
2019-06-08T03:11:20.757Z,13.79
2019-06-08T03:13:52.909Z,13.70
2019-06-08T03:16:22.303Z,13.73
2019-06-08T03:18:51.599Z,13.75
2019-06-08T03:21:20.811Z,13.70
2019-06-08T03:23:50.082Z,13.76
2019-06-08T03:26:18.767Z,13.77
2019-06-08T03:28:47.489Z,13.73
2019-06-08T03:31:16.390Z,13.66
2019-06-08T03:36:24.518Z,13.68
2019-06-08T03:41:30.742Z,13.65
2019-06-08T03:43:59.769Z,13.60
2019-06-08T03:46:28.334Z,13.60
2019-06-08T03:48:57.373Z,13.62
2019-06-08T03:51:26.006Z,13.62
2019-06-08T03:53:54.592Z,13.66
2019-06-08T03:56:23.595Z,13.71
2019-06-08T03:58:52.081Z,13.74
2019-06-08T04:01:21.150Z,13.78
2019-06-08T04:03:50.380Z,13.77
2019-06-08T04:06:19.681Z,13.86
2019-06-08T04:08:50.006Z,13.84
2019-06-08T04:11:19.426Z,13.81
2019-06-08T04:13:47.938Z,13.87
2019-06-08T04:16:16.510Z,13.96
2019-06-08T04:18:46.804Z,13.96
2019-06-08T04:21:15.565Z,13.98
2019-06-08T04:23:45.349Z,14.02
2019-06-08T04:26:15.635Z,14.02
2019-06-08T04:28:44.858Z,14.07
2019-06-08T04:31:15.002Z,14.04
2019-06-08T04:33:44.273Z,14.04
2019-06-08T04:38:50.644Z,14.14
2019-06-08T04:43:57.110Z,14.24
2019-06-08T04:46:26.125Z,14.30
2019-06-08T04:48:55.094Z,14.43
2019-06-08T04:51:24.008Z,14.48
2019-06-08T04:53:52.974Z,14.63
2019-06-08T04:56:21.565Z,14.61
2019-06-08T05:01:28.710Z,14.90
2019-06-08T05:03:58.522Z,14.88
2019-06-08T05:06:27.095Z,14.85
2019-06-08T05:08:56.237Z,14.81
2019-06-08T05:14:02.717Z,14.69
2019-06-08T05:16:31.639Z,14.66
2019-06-08T05:19:00.604Z,14.65
2019-06-08T05:21:29.231Z,14.65
2019-06-08T05:23:59.101Z,14.61
2019-06-08T05:26:28.106Z,14.64
2019-06-08T05:28:57.924Z,14.58
2019-06-08T05:31:26.471Z,14.57
2019-06-08T05:33:55.066Z,14.53
2019-06-08T05:36:23.677Z,14.54
2019-06-08T05:38:52.281Z,14.55
2019-06-08T05:41:23.935Z,14.52
2019-06-08T05:50:10.471Z,14.66
2019-06-08T05:52:39.840Z,14.61
2019-06-08T05:55:08.601Z,14.60
2019-06-08T05:57:37.567Z,14.71
2019-06-08T06:00:09.254Z,14.64
2019-06-08T06:02:37.945Z,14.73
2019-06-08T06:05:07.057Z,14.75
2019-06-08T06:07:35.630Z,14.82
2019-06-08T06:10:05.189Z,14.73
2019-06-08T06:12:34.006Z,14.69
2019-06-08T06:15:03.265Z,14.76
2019-06-08T06:17:32.163Z,14.81
2019-06-08T06:20:01.618Z,14.93
2019-06-08T06:25:08.179Z,14.98
2019-06-08T06:27:37.408Z,14.97
2019-06-08T06:30:07.195Z,15.20
2019-06-08T06:32:36.484Z,15.06
2019-06-08T06:35:06.281Z,15.18
2019-06-08T06:37:35.779Z,15.01
2019-06-08T06:40:05.052Z,15.12
2019-06-08T06:42:33.637Z,15.17
2019-06-08T06:45:02.658Z,15.13
2019-06-08T06:47:31.745Z,15.24
2019-06-08T06:50:00.378Z,15.35
2019-06-08T06:52:29.279Z,15.39
2019-06-08T06:55:03.935Z,15.43
2019-06-08T07:00:15.913Z,15.45
2019-06-08T07:02:45.828Z,15.48
2019-06-08T07:05:14.659Z,15.56
2019-06-08T07:07:44.120Z,15.64
2019-06-08T07:10:13.412Z,15.49
2019-06-08T07:12:42.018Z,15.61
2019-06-08T07:15:14.470Z,15.72
2019-06-08T07:17:43.426Z,15.63
2019-06-08T07:20:12.085Z,15.78
2019-06-08T07:22:41.099Z,15.76
2019-06-08T07:25:10.403Z,15.69
2019-06-08T07:27:38.971Z,15.79
2019-06-08T07:30:08.887Z,15.79
2019-06-08T07:32:37.831Z,15.97
2019-06-08T07:35:06.913Z,16.07
2019-06-08T07:37:35.942Z,16.06
2019-06-08T07:40:05.440Z,16.12
2019-06-08T07:42:34.892Z,16.37
2019-06-08T07:45:03.859Z,15.99
2019-06-08T07:50:17.885Z,16.17
2019-06-08T07:52:47.965Z,16.56
2019-06-08T07:55:17.603Z,16.42
2019-06-08T07:57:48.565Z,16.67
2019-06-08T08:00:17.375Z,16.83
2019-06-08T08:02:46.013Z,17.09
2019-06-08T08:05:14.872Z,17.26
2019-06-08T08:07:44.221Z,17.09
2019-06-08T08:10:13.821Z,16.96
2019-06-08T08:12:42.944Z,17.02
2019-06-08T08:15:12.038Z,17.10
2019-06-08T08:17:40.661Z,17.44
2019-06-08T08:20:10.216Z,18.04
2019-06-08T08:22:38.837Z,17.78
2019-06-08T08:25:08.378Z,18.18
2019-06-08T08:27:38.275Z,18.14
2019-06-08T08:30:08.894Z,17.74
2019-06-08T08:35:15.155Z,17.97
2019-06-08T08:37:44.747Z,17.92
2019-06-08T08:40:14.190Z,17.92
2019-06-08T08:42:43.697Z,17.51
2019-06-08T08:45:12.954Z,17.62
2019-06-08T08:50:20.284Z,17.61
2019-06-08T08:52:51.198Z,18.09
2019-06-08T08:55:20.744Z,18.47
2019-06-08T08:57:51.601Z,18.60
2019-06-08T09:00:20.830Z,18.18
2019-06-08T09:02:59.086Z,17.83
2019-06-08T09:05:20.601Z,17.66
2019-06-08T09:07:52.039Z,18.05
2019-06-08T09:10:20.613Z,18.03
2019-06-08T09:12:52.124Z,17.85
2019-06-08T09:15:20.148Z,17.70
2019-06-08T09:17:52.125Z,17.81
2019-06-08T09:20:20.397Z,17.81
2019-06-08T09:22:56.625Z,17.76
2019-06-08T09:25:19.457Z,18.86
2019-06-08T09:30:27.494Z,19.07
2019-06-08T09:32:59.410Z,18.32
2019-06-08T09:35:28.002Z,18.71
2019-06-08T09:38:01.153Z,19.03
2019-06-08T09:43:10.328Z,18.61
2019-06-08T09:48:14.077Z,19.37
2019-06-08T09:50:43.451Z,18.96
2019-06-08T09:55:50.489Z,19.81
2019-06-08T09:58:19.537Z,19.83
2019-06-08T10:00:49.420Z,20.05
2019-06-08T10:05:58.506Z,20.13
2019-06-08T10:08:28.309Z,20.39
2019-06-08T10:11:01.464Z,20.34
2019-06-08T10:13:30.593Z,20.63
2019-06-08T10:16:03.131Z,19.60
2019-06-08T10:18:30.420Z,19.77
2019-06-08T10:23:42.839Z,21.00
2019-06-08T10:28:52.324Z,20.60
2019-06-08T10:31:35.542Z,20.55
2019-06-08T10:36:31.034Z,20.57
2019-06-08T10:39:03.739Z,20.34
2019-06-08T10:44:13.850Z,21.09
2019-06-08T10:46:40.596Z,20.10
2019-06-08T10:49:14.239Z,20.98
2019-06-08T10:51:41.223Z,20.69
2019-06-08T10:56:51.562Z,21.07
2019-06-08T10:59:20.500Z,21.14
2019-06-08T11:01:49.883Z,20.35
2019-06-08T11:04:18.760Z,20.90
2019-06-08T11:09:24.929Z,20.87
2019-06-08T11:11:54.001Z,21.10
2019-06-08T11:14:22.957Z,21.36
2019-06-08T11:16:52.135Z,21.52
2019-06-08T11:19:21.066Z,21.29
2019-06-08T11:21:49.853Z,20.94
2019-06-08T11:24:24.948Z,20.53
2019-06-08T11:29:27.542Z,21.08
2019-06-08T11:31:59.926Z,20.52
2019-06-08T11:34:29.095Z,20.38
2019-06-08T11:36:59.611Z,20.45
2019-06-08T11:39:29.085Z,20.11
2019-06-08T11:41:59.084Z,20.02
2019-06-08T11:44:29.346Z,20.25
2019-06-08T11:46:58.072Z,19.86
2019-06-08T11:49:27.879Z,20.23
2019-06-08T11:51:58.348Z,19.40
2019-06-08T11:54:36.156Z,19.45
2019-06-08T11:57:00.679Z,19.70
2019-06-08T11:59:31.698Z,20.55
2019-06-08T12:02:01.900Z,20.33
2019-06-08T12:04:31.117Z,19.91
2019-06-08T12:07:00.519Z,20.09
2019-06-08T12:09:29.247Z,19.87
2019-06-08T12:11:58.500Z,20.27
2019-06-08T12:14:27.196Z,20.24
2019-06-08T12:16:58.123Z,20.44
2019-06-08T12:19:28.438Z,20.64
2019-06-08T12:21:58.132Z,20.48
2019-06-08T12:24:40.954Z,20.16
2019-06-08T12:27:03.523Z,20.76
2019-06-08T12:32:08.888Z,20.43
2019-06-08T12:34:38.462Z,20.27
2019-06-08T12:37:08.826Z,20.30
2019-06-08T12:39:38.861Z,20.39
2019-06-08T12:42:15.628Z,20.29
2019-06-08T12:44:39.470Z,20.34
2019-06-08T12:47:13.334Z,21.09
2019-06-08T12:49:40.401Z,20.60
2019-06-08T12:52:12.413Z,19.80
2019-06-08T12:54:56.193Z,20.10
2019-06-08T12:57:14.929Z,20.32
2019-06-08T13:02:24.107Z,20.38
2019-06-08T13:04:52.104Z,20.13
2019-06-08T13:07:20.759Z,20.15
2019-06-08T13:09:50.085Z,19.94
2019-06-08T13:12:20.339Z,20.20
2019-06-08T13:14:50.624Z,20.42
2019-06-08T13:17:21.266Z,20.76
2019-06-08T13:19:50.725Z,21.06
2019-06-08T13:22:23.935Z,20.27
2019-06-08T13:24:49.765Z,20.81
2019-06-08T13:27:21.532Z,21.19
2019-06-08T13:32:28.458Z,21.13
2019-06-08T13:34:58.450Z,20.75
2019-06-08T13:37:27.936Z,20.94
2019-06-08T13:39:59.044Z,21.08
2019-06-08T13:42:27.993Z,20.44
2019-06-08T13:44:57.923Z,20.43
2019-06-08T13:47:28.288Z,20.74
2019-06-08T13:49:57.001Z,21.33
2019-06-08T13:52:28.021Z,20.96
2019-06-08T13:54:58.344Z,20.59
2019-06-08T13:57:27.132Z,21.46
2019-06-08T13:59:57.872Z,21.55
2019-06-08T14:02:30.927Z,20.73
2019-06-08T14:04:59.159Z,20.91
2019-06-08T14:07:34.240Z,20.82
2019-06-08T14:10:01.718Z,20.33
2019-06-08T14:12:31.440Z,20.59
2019-06-08T14:15:00.491Z,20.71
2019-06-08T14:20:08.073Z,20.62
2019-06-08T14:22:38.795Z,20.85
2019-06-08T14:27:47.998Z,20.69
2019-06-08T14:30:18.276Z,20.48
2019-06-08T14:32:47.937Z,20.46
2019-06-08T14:35:20.625Z,20.68
2019-06-08T14:37:48.238Z,20.70
2019-06-08T14:40:17.759Z,20.63
2019-06-08T14:42:48.490Z,21.00
2019-06-08T14:45:18.129Z,21.48
2019-06-08T14:47:47.909Z,21.10
2019-06-08T14:50:18.478Z,20.97
2019-06-08T14:52:50.393Z,21.82
2019-06-08T14:55:20.238Z,21.61
2019-06-08T14:57:49.665Z,21.19
2019-06-08T15:02:59.152Z,21.45
2019-06-08T15:05:30.728Z,22.07
2019-06-08T15:10:38.281Z,21.54
2019-06-08T15:13:07.748Z,21.64
2019-06-08T15:15:38.091Z,21.26
2019-06-08T15:18:10.558Z,21.25
2019-06-08T15:20:38.095Z,21.05
2019-06-08T15:23:08.178Z,21.04
2019-06-08T15:25:38.673Z,21.14
2019-06-08T15:28:08.239Z,21.11
2019-06-08T15:30:38.105Z,20.84
2019-06-08T15:35:47.566Z,21.69
2019-06-08T15:38:17.554Z,21.33
2019-06-08T15:40:47.802Z,21.17
2019-06-08T15:43:18.254Z,21.56
2019-06-08T15:48:28.983Z,21.59
2019-06-08T15:50:58.363Z,21.28
2019-06-08T15:53:29.681Z,21.47
2019-06-08T15:55:58.470Z,21.50
2019-06-08T15:58:29.919Z,21.03
2019-06-08T16:00:58.474Z,21.22
2019-06-08T16:03:27.441Z,21.05
2019-06-08T16:08:37.864Z,21.02
2019-06-08T16:11:06.632Z,21.15
2019-06-08T16:13:35.782Z,20.73
2019-06-08T16:16:04.600Z,20.97
2019-06-08T16:18:33.557Z,20.71
2019-06-08T16:23:40.252Z,20.54
2019-06-08T16:26:09.562Z,19.94
2019-06-08T16:28:38.676Z,20.36
2019-06-08T16:31:08.058Z,20.02
2019-06-08T16:33:36.950Z,20.45
2019-06-08T16:36:05.556Z,20.65
2019-06-08T16:38:34.592Z,20.35
2019-06-08T16:43:42.233Z,20.26
2019-06-08T16:46:11.890Z,20.25
2019-06-08T16:51:18.358Z,19.73
2019-06-08T16:53:47.347Z,19.82
2019-06-08T16:58:56.588Z,19.97
2019-06-08T17:01:25.171Z,20.12
2019-06-08T17:03:54.070Z,20.34
2019-06-08T17:06:23.252Z,20.33
2019-06-08T17:11:33.790Z,20.22
2019-06-08T17:14:02.827Z,20.47
2019-06-08T17:16:32.216Z,20.60
2019-06-08T17:21:40.589Z,20.66
2019-06-08T17:26:46.709Z,20.24
2019-06-08T17:29:15.710Z,20.24
2019-06-08T17:31:44.809Z,20.42
2019-06-08T17:34:13.650Z,20.27
2019-06-08T17:36:42.750Z,20.05
2019-06-08T17:41:48.932Z,20.27
2019-06-08T17:44:17.771Z,20.23
2019-06-08T17:49:26.393Z,20.03
2019-06-08T17:51:55.249Z,20.07
2019-06-08T17:54:24.598Z,19.86
2019-06-08T17:56:54.411Z,19.79
2019-06-08T17:59:23.383Z,19.69
2019-06-08T18:01:53.104Z,19.79
2019-06-08T18:04:22.210Z,19.79
2019-06-08T18:06:51.067Z,19.60
2019-06-08T18:09:20.105Z,19.51
2019-06-08T18:11:49.346Z,19.62
2019-06-08T18:14:18.234Z,19.47
2019-06-08T18:16:47.926Z,19.46
2019-06-08T18:19:28.310Z,19.44
2019-06-08T18:22:04.707Z,19.31
2019-06-08T18:24:28.421Z,19.37
2019-06-08T18:26:58.742Z,19.44
2019-06-08T18:29:27.934Z,19.17
2019-06-08T18:31:58.139Z,19.13
2019-06-08T18:34:28.181Z,19.10
2019-06-08T18:36:58.188Z,18.92
2019-06-08T18:42:10.178Z,18.81
2019-06-08T18:44:42.466Z,18.62
2019-06-08T18:47:10.718Z,18.59
2019-06-08T18:52:17.910Z,18.51
2019-06-08T18:54:49.277Z,18.45
2019-06-08T18:57:17.665Z,18.41
2019-06-08T19:02:25.929Z,18.30
2019-06-08T19:04:57.361Z,18.24
2019-06-08T19:07:28.310Z,18.25
2019-06-08T19:09:59.683Z,18.25
2019-06-08T19:12:28.709Z,18.10
2019-06-08T19:14:58.615Z,18.08
2019-06-08T19:17:28.435Z,18.01
2019-06-08T19:19:58.055Z,17.95
2019-06-08T19:22:30.069Z,17.94
2019-06-08T19:24:57.844Z,17.93
2019-06-08T19:27:27.697Z,17.97
2019-06-08T19:29:57.770Z,17.90
2019-06-08T19:32:28.030Z,17.84
2019-06-08T19:34:57.997Z,17.88
2019-06-08T19:37:28.059Z,17.85
2019-06-08T19:39:57.780Z,17.74
2019-06-08T19:42:36.667Z,17.76
2019-06-08T19:45:05.069Z,17.79
2019-06-08T19:47:27.999Z,17.78
2019-06-08T19:49:57.787Z,17.81
2019-06-08T19:52:26.551Z,17.63
2019-06-08T19:54:55.263Z,17.64
2019-06-08T19:57:24.223Z,17.52
2019-06-08T19:59:53.149Z,17.45
2019-06-08T20:02:21.808Z,17.41
2019-06-08T20:04:50.549Z,17.32
2019-06-08T20:07:19.534Z,17.22
2019-06-08T20:09:49.687Z,17.24
2019-06-08T20:12:18.978Z,17.20
2019-06-08T20:14:48.410Z,17.00
2019-06-08T20:17:19.418Z,17.01
2019-06-08T20:19:50.491Z,16.92
2019-06-08T20:24:56.095Z,16.83
2019-06-08T20:30:09.542Z,16.71
2019-06-08T20:32:37.847Z,16.57
2019-06-08T20:35:07.976Z,16.43
2019-06-08T20:37:38.097Z,16.40
2019-06-08T20:40:13.645Z,16.33
2019-06-08T20:42:37.942Z,16.25
2019-06-08T20:45:08.178Z,16.20
2019-06-08T20:47:39.075Z,16.17
2019-06-08T20:50:07.952Z,16.11
2019-06-08T20:52:37.832Z,16.03
2019-06-08T20:55:07.813Z,16.00
2019-06-08T20:57:36.864Z,16.00
2019-06-08T21:00:09.180Z,15.89
2019-06-08T21:02:37.787Z,15.88
2019-06-08T21:05:07.864Z,15.70
2019-06-08T21:07:37.081Z,15.58
2019-06-08T21:10:08.544Z,15.39
2019-06-08T21:12:37.961Z,15.27
2019-06-08T21:15:07.232Z,15.34
2019-06-08T21:17:38.239Z,15.31
2019-06-08T21:20:08.481Z,15.20
2019-06-08T21:22:37.393Z,15.11
2019-06-08T21:25:08.703Z,15.20
2019-06-08T21:27:38.530Z,15.24
2019-06-08T21:30:19.793Z,15.24
2019-06-08T21:32:38.690Z,15.16
2019-06-08T21:35:07.891Z,15.22
2019-06-08T21:37:37.728Z,14.91
2019-06-08T21:40:08.512Z,15.11
2019-06-08T21:42:37.140Z,15.02
2019-06-08T21:45:09.436Z,15.09
2019-06-08T21:47:37.844Z,14.85
2019-06-08T21:50:08.090Z,14.71
2019-06-08T21:55:14.483Z,14.89
2019-06-08T21:57:43.199Z,14.91
2019-06-08T22:00:34.715Z,14.76
2019-06-08T22:02:43.319Z,14.86
2019-06-08T22:05:12.617Z,14.78
2019-06-08T22:07:42.097Z,14.78
2019-06-08T22:12:53.281Z,14.76
2019-06-08T22:15:22.435Z,14.59
2019-06-08T22:17:52.004Z,14.36
2019-06-08T22:23:00.918Z,13.97
2019-06-08T22:25:33.203Z,13.93
2019-06-08T22:30:42.749Z,13.91
2019-06-08T22:33:08.872Z,13.74
2019-06-08T22:35:37.935Z,13.66
2019-06-08T22:38:10.090Z,13.80
2019-06-08T22:40:39.489Z,13.74
2019-06-08T22:43:08.347Z,13.70
2019-06-08T22:45:37.698Z,13.62
2019-06-08T22:48:08.163Z,13.58
2019-06-08T22:50:38.251Z,13.62
2019-06-08T22:53:08.018Z,13.59
2019-06-08T22:55:38.277Z,13.67
2019-06-08T22:58:07.778Z,13.62
2019-06-08T23:00:51.777Z,13.81
2019-06-08T23:05:47.791Z,13.82
2019-06-08T23:08:17.685Z,13.87
2019-06-08T23:10:48.266Z,13.77
2019-06-08T23:13:17.892Z,13.75
2019-06-08T23:15:47.887Z,13.66
2019-06-08T23:18:18.097Z,13.66
2019-06-08T23:23:23.928Z,13.57
2019-06-08T23:25:52.943Z,13.44
2019-06-08T23:28:21.880Z,13.33
2019-06-08T23:31:03.662Z,13.21
2019-06-08T23:33:22.047Z,13.30
2019-06-08T23:36:30.002Z,13.37
2019-06-08T23:38:21.859Z,13.37
2019-06-08T23:40:50.980Z,13.42
2019-06-08T23:43:20.004Z,13.39
2019-06-08T23:45:49.003Z,13.24
2019-06-08T23:48:17.638Z,13.17
2019-06-08T23:50:47.390Z,13.09
2019-06-08T23:55:58.277Z,12.74
2019-06-08T23:58:27.820Z,12.72
